Terminal Aerodrome Forecast
Issued by NWS Cleveland, OH

Home | Current Version | Previous Version | Graphics & Text | Print | Product List | Glossary On
Versions: 1 2 3 4 5 6 7 8 9 10 11 12 13
212
FTUS41 KCLE 221727
TAFCAK
TAF
KCAK 221727Z 2218/2318 35010KT P6SM SCT040
     FM230100 36005KT P6SM FEW045
     FM231500 35006KT P6SM SCT035
     FM231700 35009KT P6SM BKN040=

USA.gov is the U.S. government's official web portal to all federal, state and local government web resources and services.